Time;durP1;ratioP1;P1;durP2;ratioP2;P2;SDS_P1;SDS_P2;PMS_P1;PMS_P2;Temp;Humidity;BMP_temperature;BMP_pressure;BME280_temperature;BME280_humidity;BME280_pressure;Samples;Min_cycle;Max_cycle;Signal;HPM_P1;HPM_P2
2023/08/11 00:01:38;;;;;;;7.97;3.10;;;;;;;13.48;100.00;99330.09;5026349;28;20048;-59
2023/08/11 00:04:04;;;;;;;3.83;2.70;;;;;;;13.41;100.00;99326.53;5028640;28;20564;-63
2023/08/11 00:06:30;;;;;;;12.13;3.28;;;;;;;13.31;100.00;99318.84;5045625;28;20116;-58
2023/08/11 00:08:55;;;;;;;7.85;3.50;;;;;;;13.28;100.00;99320.09;5031871;28;20068;-63
2023/08/11 00:11:22;;;;;;;5.35;3.20;;;;;;;13.28;100.00;99320.09;5029282;28;20051;-62
2023/08/11 00:13:48;;;;;;;6.40;2.90;;;;;;;13.16;100.00;99316.28;5021829;28;20033;-62
2023/08/11 00:16:14;;;;;;;4.20;2.95;;;;;;;13.09;100.00;99323.56;5019503;28;20026;-59
2023/08/11 00:18:40;;;;;;;6.10;3.47;;;;;;;13.08;100.00;99325.44;5026492;28;20025;-59
2023/08/11 00:21:05;;;;;;;5.97;3.65;;;;;;;13.10;100.00;99317.94;5030628;28;20049;-59
2023/08/11 00:23:31;;;;;;;10.48;3.60;;;;;;;13.16;100.00;99317.09;5031271;28;20029;-58
2023/08/11 00:25:57;;;;;;;5.47;3.40;;;;;;;13.17;100.00;99312.50;5028383;28;20420;-62
2023/08/11 00:28:22;;;;;;;5.88;3.15;;;;;;;13.20;100.00;99320.22;5013054;28;20026;-63
2023/08/11 00:30:48;;;;;;;4.43;2.88;;;;;;;13.20;100.00;99316.69;5026739;28;20025;-58
2023/08/11 00:33:14;;;;;;;4.28;3.33;;;;;;;13.18;100.00;99319.63;5033688;28;20027;-59
2023/08/11 00:35:41;;;;;;;7.03;3.15;;;;;;;13.16;100.00;99316.28;5026099;28;20075;-59
2023/08/11 00:38:06;;;;;;;4.95;2.83;;;;;;;13.01;100.00;99313.72;5042145;28;20435;-59
2023/08/11 00:40:32;;;;;;;4.97;3.08;;;;;;;12.98;100.00;99307.88;5028809;28;20120;-59
2023/08/11 00:42:57;;;;;;;3.90;2.58;;;;;;;12.95;100.00;99311.84;5027892;28;20013;-62
2023/08/11 00:45:23;;;;;;;4.50;3.20;;;;;;;12.97;100.00;99317.06;5026247;28;20037;-63
2023/08/11 00:47:49;;;;;;;5.07;3.45;;;;;;;12.93;100.00;99319.38;5023235;28;20306;-63
2023/08/11 00:50:18;;;;;;;7.40;3.35;;;;;;;13.01;100.00;99318.34;5023182;28;20033;-63
2023/08/11 00:52:46;;;;;;;4.72;3.20;;;;;;;12.91;100.00;99313.28;5039194;28;20036;-59
2023/08/11 00:55:12;;;;;;;5.68;3.17;;;;;;;12.85;100.00;99312.25;5021580;28;20385;-59
2023/08/11 00:57:38;;;;;;;3.92;3.20;;;;;;;12.88;100.00;99314.53;5022892;28;20026;-59
2023/08/11 01:00:24;;;;;;;5.88;2.88;;;;;;;12.83;100.00;99317.03;5023462;28;20046;-59
2023/08/11 01:02:50;;;;;;;4.47;3.15;;;;;;;12.80;100.00;99322.88;5023482;28;20025;-59
2023/08/11 01:05:19;;;;;;;4.95;3.22;;;;;;;12.92;100.00;99315.00;5028130;28;20040;-63
2023/08/11 01:08:21;;;;;;;4.70;2.88;;;;;;;12.87;100.00;99318.31;5029803;28;20026;-59
2023/08/11 01:11:04;;;;;;;3.80;3.10;;;;;;;12.78;100.00;99316.81;5036770;28;20116;-59
2023/08/11 01:13:34;;;;;;;7.10;3.63;;;;;;;12.75;100.00;99313.69;5027548;28;20851;-63
2023/08/11 01:16:00;;;;;;;;;;;;;;;12.73;100.00;99319.31;5021162;28;20022;-59
2023/08/11 01:18:28;;;;;;;4.70;3.20;;;;;;;12.72;100.00;99313.03;5044864;28;20273;-63
2023/08/11 01:20:58;;;;;;;8.18;3.80;;;;;;;12.74;100.00;99312.84;5047570;28;20026;-63
2023/08/11 01:23:24;;;;;;;4.15;3.03;;;;;;;12.73;100.00;99313.88;5032299;28;20025;-58
2023/08/11 01:25:51;;;;;;;8.13;3.50;;;;;;;12.75;100.00;99319.94;5026286;28;20029;-59
2023/08/11 01:28:17;;;;;;;5.13;3.50;;;;;;;12.70;100.00;99328.69;5028280;28;20028;-58
2023/08/11 01:30:42;;;;;;;5.80;3.40;;;;;;;12.65;100.00;99325.78;5022117;28;20033;-63
2023/08/11 01:33:08;;;;;;;4.88;3.30;;;;;;;12.64;100.00;99324.09;5025852;28;20080;-62
2023/08/11 01:35:33;;;;;;;5.85;3.70;;;;;;;12.60;100.00;99317.41;5022655;28;20036;-62
2023/08/11 01:37:59;;;;;;;7.15;4.10;;;;;;;12.61;100.00;99324.50;5025916;28;20042;-62
2023/08/11 01:40:26;;;;;;;7.63;3.72;;;;;;;12.54;100.00;99322.81;5046600;28;20028;-62
2023/08/11 01:42:56;;;;;;;7.80;3.67;;;;;;;12.56;100.00;99315.31;5027986;28;20060;-63
2023/08/11 01:45:21;;;;;;;;;;;;;;;12.53;100.00;99321.16;5036474;28;20029;-66
2023/08/11 01:47:48;;;;;;;5.45;3.53;;;;;;;12.47;100.00;99329.06;5030676;28;19916;-61
2023/08/11 01:50:14;;;;;;;8.63;3.97;;;;;;;12.48;100.00;99328.00;5039071;28;20112;-63
2023/08/11 01:52:43;;;;;;;4.88;3.60;;;;;;;12.51;100.00;99337.63;5028918;28;20022;-58
2023/08/11 01:55:10;;;;;;;6.68;3.60;;;;;;;12.44;100.00;99347.59;5017548;28;20033;-62
2023/08/11 01:57:40;;;;;;;5.40;3.45;;;;;;;12.38;100.00;99341.09;5034510;28;20349;-58
2023/08/11 02:00:11;;;;;;;5.82;3.53;;;;;;;12.40;100.00;99339.03;5015103;28;20148;-58
2023/08/11 02:02:39;;;;;;;5.82;3.42;;;;;;;12.39;100.00;99336.50;5039229;28;20021;-62
2023/08/11 02:05:07;;;;;;;6.10;3.33;;;;;;;12.36;100.00;99335.03;5043660;28;20028;-62
2023/08/11 02:07:35;;;;;;;4.63;3.47;;;;;;;12.30;100.00;99327.72;5019812;28;20033;-57
2023/08/11 02:10:01;;;;;;;5.45;3.45;;;;;;;12.22;100.00;99333.31;5025574;28;20120;-58
2023/08/11 02:12:26;;;;;;;5.65;3.28;;;;;;;12.16;100.00;99320.56;5030803;28;20187;-61
2023/08/11 02:14:51;;;;;;;4.95;3.22;;;;;;;12.16;100.00;99328.69;5028075;28;20482;-62
2023/08/11 02:17:17;;;;;;;5.53;3.45;;;;;;;12.16;100.00;99321.41;5028797;28;20021;-62
2023/08/11 02:19:42;;;;;;;7.00;3.90;;;;;;;12.16;100.00;99323.28;5014326;28;20034;-62
2023/08/11 02:22:08;;;;;;;6.43;3.20;;;;;;;12.18;100.00;99334.75;5024561;28;20041;-58
2023/08/11 02:24:35;;;;;;;6.90;3.30;;;;;;;12.12;100.00;99332.84;5023325;28;20079;-58
2023/08/11 02:27:01;;;;;;;8.50;3.33;;;;;;;12.12;100.00;99333.69;5022294;28;20017;-62
2023/08/11 02:29:26;;;;;;;5.70;3.47;;;;;;;12.12;100.00;99341.81;5023513;28;20037;-62
2023/08/11 02:31:52;;;;;;;12.93;3.45;;;;;;;12.07;100.00;99336.97;5022269;28;20465;-62
2023/08/11 02:34:17;;;;;;;5.00;3.30;;;;;;;12.06;100.00;99338.03;5029415;28;20030;-62
2023/08/11 02:36:43;;;;;;;4.53;2.95;;;;;;;11.97;100.00;99327.53;5019060;28;20026;-63
2023/08/11 02:39:08;;;;;;;4.85;3.00;;;;;;;11.89;100.00;99335.81;5015955;28;20076;-63
2023/08/11 02:41:34;;;;;;;7.30;3.65;;;;;;;11.82;100.00;99335.78;5044597;28;20519;-63
2023/08/11 02:44:00;;;;;;;8.40;3.47;;;;;;;11.84;100.00;99334.53;5018966;28;20021;-57
2023/08/11 02:46:26;;;;;;;9.60;3.55;;;;;;;11.86;100.00;99334.34;5025414;28;20033;-63
2023/08/11 02:48:51;;;;;;;5.78;3.42;;;;;;;11.87;100.00;99341.47;5022985;28;20112;-58
2023/08/11 02:51:16;;;;;;;5.20;3.15;;;;;;;11.90;100.00;99340.22;5016791;28;20045;-58
2023/08/11 02:53:42;;;;;;;6.97;3.30;;;;;;;11.82;100.00;99333.88;5044811;28;20076;-58
2023/08/11 02:56:09;;;;;;;5.90;3.22;;;;;;;11.78;100.00;99331.75;5025217;28;20037;-63
2023/08/11 02:58:35;;;;;;;5.53;3.10;;;;;;;11.80;100.00;99329.69;5029334;28;20033;-62
2023/08/11 03:01:01;;;;;;;6.43;3.50;;;;;;;11.81;100.00;99326.78;5024206;28;20032;-63
2023/08/11 03:03:26;;;;;;;3.95;2.90;;;;;;;11.82;100.00;99335.78;5027242;28;20017;-62
2023/08/11 03:05:52;;;;;;;4.53;3.30;;;;;;;11.80;100.00;99332.41;5012051;28;20054;-62
2023/08/11 03:08:17;;;;;;;4.57;3.47;;;;;;;11.75;100.00;99330.28;5020511;28;20088;-58
2023/08/11 03:10:42;;;;;;;6.68;3.65;;;;;;;11.70;100.00;99329.22;5025878;28;20123;-58
2023/08/11 03:13:08;;;;;;;4.05;3.10;;;;;;;11.62;100.00;99335.63;5021941;28;20033;-63
2023/08/11 03:15:34;;;;;;;4.45;3.00;;;;;;;11.57;100.00;99338.06;5029839;28;20033;-62
2023/08/11 03:18:00;;;;;;;6.63;3.28;;;;;;;11.64;100.00;99338.97;5021851;28;20030;-62
2023/08/11 03:20:25;;;;;;;10.10;3.45;;;;;;;11.61;100.00;99339.38;5025319;28;20112;-62
2023/08/11 03:22:51;;;;;;;3.88;3.10;;;;;;;11.59;100.00;99341.44;5024863;28;20113;-62
2023/08/11 03:25:16;;;;;;;8.63;3.83;;;;;;;11.61;100.00;99344.78;5016956;28;20041;-62
2023/08/11 03:27:42;;;;;;;7.63;3.65;;;;;;;11.57;100.00;99344.31;5026173;28;20079;-63
2023/08/11 03:30:10;;;;;;;6.28;4.07;;;;;;;11.54;100.00;99344.72;5012520;28;20025;-63
2023/08/11 03:32:35;;;;;;;7.78;3.55;;;;;;;11.51;100.00;99328.88;5029065;28;20465;-62
2023/08/11 03:35:01;;;;;;;7.70;3.95;;;;;;;11.46;100.00;99342.16;5027721;28;20033;-63
2023/08/11 03:37:27;;;;;;;6.25;3.90;;;;;;;11.45;100.00;99337.78;5030248;28;20040;-58
2023/08/11 03:39:52;;;;;;;5.60;3.47;;;;;;;11.47;100.00;99340.28;5019384;28;20026;-58
2023/08/11 03:42:18;;;;;;;7.32;3.50;;;;;;;11.35;100.00;99337.28;5026378;28;20017;-62
2023/08/11 03:44:43;;;;;;;5.90;3.70;;;;;;;11.28;100.00;99344.50;5013961;28;20026;-63
2023/08/11 03:47:09;;;;;;;7.22;3.30;;;;;;;11.24;100.00;99341.34;5024135;28;20052;-63
2023/08/11 03:49:35;;;;;;;8.68;3.60;;;;;;;11.37;100.00;99341.47;5020719;28;20041;-68
2023/08/11 03:52:00;;;;;;;5.68;3.60;;;;;;;11.38;100.00;99342.31;5027025;28;20025;-63
2023/08/11 03:54:25;;;;;;;5.25;3.78;;;;;;;11.42;100.00;99346.28;5029360;28;20037;-63
2023/08/11 03:56:51;;;;;;;6.85;3.65;;;;;;;11.39;100.00;99354.81;5026535;28;20116;-63
2023/08/11 03:59:18;;;;;;;8.32;3.45;;;;;;;11.40;100.00;99348.38;5027980;28;20033;-63
2023/08/11 04:01:44;;;;;;;5.90;3.83;;;;;;;11.41;100.00;99344.63;5026919;28;20120;-63
2023/08/11 04:04:09;;;;;;;7.20;3.47;;;;;;;11.47;100.00;99343.81;5047926;28;20120;-62
2023/08/11 04:06:35;;;;;;;5.97;4.00;;;;;;;11.43;100.00;99339.84;5025932;28;20025;-62
2023/08/11 04:09:00;;;;;;;11.93;4.18;;;;;;;11.40;100.00;99348.38;5026982;28;20029;-62
2023/08/11 04:11:27;;;;;;;9.40;4.35;;;;;;;11.36;100.00;99344.38;5019441;28;20071;-62
2023/08/11 04:13:56;;;;;;;11.43;4.05;;;;;;;11.38;100.00;99340.44;5020657;28;20033;-62
2023/08/11 04:16:21;;;;;;;10.30;4.30;;;;;;;11.43;100.00;99342.56;5022269;28;20032;-62
2023/08/11 04:18:47;;;;;;;7.18;4.30;;;;;;;11.50;100.00;99351.59;5013164;28;20076;-62
2023/08/11 04:21:12;;;;;;;8.05;3.50;;;;;;;11.52;100.00;99357.63;5025582;28;20090;-62
2023/08/11 04:23:37;;;;;;;4.70;3.03;;;;;;;11.48;100.00;99344.69;5025155;28;20029;-62
2023/08/11 04:26:05;;;;;;;7.03;3.92;;;;;;;11.43;100.00;99344.44;5021613;28;20022;-58
2023/08/11 04:28:31;;;;;;;7.13;3.88;;;;;;;11.49;100.00;99344.47;5043878;28;20034;-59
2023/08/11 04:30:57;;;;;;;4.85;3.58;;;;;;;11.59;100.00;99341.44;5027221;28;20037;-58
2023/08/11 04:33:22;;;;;;;8.50;3.83;;;;;;;11.59;100.00;99342.25;5023802;28;20032;-58
2023/08/11 04:35:49;;;;;;;8.20;3.95;;;;;;;11.56;100.00;99331.00;5025618;28;20551;-61
2023/08/11 04:38:15;;;;;;;8.68;4.25;;;;;;;11.61;100.00;99333.94;5027156;28;20036;-58
2023/08/11 04:40:40;;;;;;;5.78;4.35;;;;;;;11.65;100.00;99340.63;5027268;28;20385;-62
2023/08/11 04:43:06;;;;;;;7.13;4.00;;;;;;;11.74;100.00;99338.63;5029024;28;20057;-62
2023/08/11 04:45:31;;;;;;;5.65;3.50;;;;;;;11.81;100.00;99334.06;5027556;28;20049;-62
2023/08/11 04:47:57;;;;;;;8.68;3.55;;;;;;;11.90;100.00;99334.81;5022914;28;20025;-57
2023/08/11 04:50:23;;;;;;;5.47;3.47;;;;;;;11.94;100.00;99327.94;5023352;28;20030;-58
2023/08/11 04:52:48;;;;;;;10.43;3.88;;;;;;;12.07;100.00;99336.97;5041381;28;20112;-58
2023/08/11 04:55:14;;;;;;;9.60;3.45;;;;;;;12.15;100.00;99329.72;5026197;28;20124;-62
2023/08/11 04:57:40;;;;;;;8.98;3.78;;;;;;;12.20;100.00;99327.25;5054639;22;20705;-55
2023/08/11 05:00:14;;;;;;;7.38;3.50;;;;;;;12.30;100.00;99313.31;5023743;28;20036;-55
2023/08/11 05:02:41;;;;;;;10.13;3.45;;;;;;;12.37;100.00;99328.59;5020634;28;20029;-56
2023/08/11 05:05:08;;;;;;;7.40;3.70;;;;;;;12.48;100.00;99325.28;5019956;28;20029;-55
2023/08/11 05:07:33;;;;;;;5.95;2.90;;;;;;;12.64;100.00;99312.41;5022734;28;20052;-55
2023/08/11 05:09:59;;;;;;;7.88;3.15;;;;;;;12.88;100.00;99330.00;5022289;28;20130;-55
2023/08/11 05:12:24;;;;;;;6.55;3.20;;;;;;;13.07;100.00;99317.50;5026860;28;20476;-55
2023/08/11 05:14:50;;;;;;;9.07;3.17;;;;;;;13.21;100.00;99319.19;5023509;28;20033;-56
2023/08/11 05:17:15;;;;;;;5.70;3.17;;;;;;;13.29;100.00;99318.19;5025735;28;20045;-56
2023/08/11 05:19:41;;;;;;;5.82;2.65;;;;;;;13.43;100.00;99322.56;5022600;28;20032;-55
2023/08/11 05:22:06;;;;;;;6.60;3.10;;;;;;;13.60;100.00;99317.56;5023520;28;20111;-55
2023/08/11 05:24:33;;;;;;;11.77;3.58;;;;;;;13.76;100.00;99319.00;5022803;28;20491;-55
2023/08/11 05:26:58;;;;;;;9.40;3.25;;;;;;;13.89;100.00;99316.28;5023487;28;20028;-58
2023/08/11 05:29:24;;;;;;;3.58;2.80;;;;;;;14.09;100.00;99313.47;5028866;28;20040;-56
2023/08/11 05:31:49;;;;;;;5.45;3.00;;;;;;;14.33;100.00;99322.00;5034951;28;20039;-56
2023/08/11 05:34:14;;;;;;;8.20;2.65;;;;;;;14.54;100.00;99321.75;5049782;28;20415;-56
2023/08/11 05:36:40;;;;;;;5.80;2.80;;;;;;;14.71;100.00;99327.53;5030100;28;20108;-55
2023/08/11 05:39:08;;;;;;;7.43;2.95;;;;;;;14.84;100.00;99321.16;5028108;28;20018;-53
2023/08/11 05:41:33;;;;;;;6.80;3.20;;;;;;;14.99;100.00;99324.44;5028150;28;20036;-56
2023/08/11 05:43:59;;;;;;;5.63;2.78;;;;;;;15.19;100.00;99312.56;5017295;28;20079;-55
2023/08/11 05:46:25;;;;;;;7.10;2.92;;;;;;;15.32;100.00;99305.09;5031440;28;20033;-55
2023/08/11 05:48:51;;;;;;;18.10;2.97;;;;;;;15.39;100.00;99313.25;5022649;28;20021;-55
2023/08/11 05:51:16;;;;;;;6.63;3.03;;;;;;;15.68;100.00;99305.44;5021276;28;20055;-56
2023/08/11 05:53:42;;;;;;;6.35;2.95;;;;;;;15.81;100.00;99313.53;5019658;28;20507;-55
2023/08/11 05:56:08;;;;;;;5.55;2.78;;;;;;;16.02;100.00;99309.53;5020921;28;20029;-55
2023/08/11 05:58:34;;;;;;;7.05;3.70;;;;;;;16.25;100.00;99311.59;5024763;28;20033;-55
2023/08/11 06:01:00;;;;;;;5.70;2.78;;;;;;;16.57;100.00;99297.75;5018270;28;20026;-55
2023/08/11 06:03:30;;;;;;;5.57;2.42;;;;;;;16.80;100.00;99303.34;5026030;28;20103;-55
2023/08/11 06:06:00;;;;;;;5.63;2.53;;;;;;;16.98;100.00;99296.19;5022384;28;20075;-56
2023/08/11 06:08:27;;;;;;;5.40;2.58;;;;;;;17.05;100.00;99302.34;5022562;28;20542;-54
2023/08/11 06:10:52;;;;;;;6.97;2.78;;;;;;;17.18;100.00;99301.31;5038380;28;20028;-56
2023/08/11 06:13:18;;;;;;;5.95;2.80;;;;;;;17.44;100.00;99305.53;5035366;28;20548;-62
2023/08/11 06:15:43;;;;;;;9.50;2.92;;;;;;;17.85;100.00;99296.44;5028286;28;20037;-55
2023/08/11 06:18:08;;;;;;;6.03;3.00;;;;;;;19.73;100.00;99286.63;5021169;28;20037;-55
2023/08/11 06:20:34;;;;;;;4.57;2.28;;;;;;;22.61;100.00;99277.25;5042983;28;20099;-54
2023/08/11 06:22:59;;;;;;;4.07;2.20;;;;;;;24.58;100.00;99287.72;5035495;28;20032;-55
2023/08/11 06:25:24;;;;;;;3.38;1.98;;;;;;;25.08;93.56;99291.28;5036115;28;20063;-55
2023/08/11 06:27:50;;;;;;;4.53;2.15;;;;;;;26.14;83.36;99281.53;5020323;28;20025;-55
2023/08/11 06:30:15;;;;;;;8.85;2.58;;;;;;;27.40;72.45;99277.34;5023722;28;20025;-55
2023/08/11 06:32:43;;;;;;;2.83;1.83;;;;;;;27.28;71.14;99275.06;5023951;28;20128;-55
2023/08/11 06:35:08;;;;;;;3.17;1.85;;;;;;;28.61;66.25;99271.78;5020116;28;20025;-55
2023/08/11 06:37:34;;;;;;;5.90;2.10;;;;;;;29.01;63.98;99274.81;5016165;28;20362;-53
2023/08/11 06:39:59;;;;;;;2.78;1.60;;;;;;;30.00;59.44;99283.25;5017839;28;20023;-53
2023/08/11 06:42:25;;;;;;;3.42;1.95;;;;;;;30.64;57.48;99278.09;5026625;28;20018;-53
2023/08/11 06:44:50;;;;;;;5.50;1.90;;;;;;;30.34;57.89;99289.03;5035001;28;20025;-54
2023/08/11 06:47:16;;;;;;;4.65;1.88;;;;;;;30.41;56.84;99284.94;5035169;28;20025;-54
2023/08/11 06:49:42;;;;;;;3.15;1.90;;;;;;;31.22;55.09;99274.06;5023920;28;20051;-57
2023/08/11 06:52:07;;;;;;;3.33;1.98;;;;;;;31.37;54.97;99281.19;5023941;28;20023;-56
2023/08/11 06:54:33;;;;;;;2.35;1.70;;;;;;;32.17;52.68;99286.28;5019349;28;20483;-56
2023/08/11 06:57:02;;;;;;;5.90;2.08;;;;;;;31.80;53.11;99279.47;5022105;28;20419;-55
2023/08/11 06:59:28;;;;;;;3.03;1.52;;;;;;;32.01;52.16;99283.19;5017643;28;20080;-55
2023/08/11 07:01:53;;;;;;;2.88;1.38;;;;;;;32.64;50.76;99282.63;5028859;28;20431;-55
2023/08/11 07:04:19;;;;;;;2.92;1.48;;;;;;;33.29;49.45;99283.97;5026362;28;20112;-55
2023/08/11 07:06:46;;;;;;;7.18;2.08;;;;;;;34.24;47.37;99276.59;5026701;28;20021;-56
2023/08/11 07:09:12;;;;;;;3.70;1.70;;;;;;;35.01;45.34;99281.47;5026928;28;20484;-56
2023/08/11 07:11:38;;;;;;;5.35;1.88;;;;;;;36.93;43.06;99277.78;5031074;28;20021;-56
2023/08/11 07:14:04;;;;;;;5.78;1.50;;;;;;;36.69;42.61;99284.47;5015379;28;20497;-56
2023/08/11 07:16:29;;;;;;;6.25;1.63;;;;;;;34.63;44.00;99287.50;5022631;28;20149;-56
2023/08/11 07:18:54;;;;;;;3.08;1.30;;;;;;;35.67;43.16;99285.03;5023620;28;20032;-56
2023/08/11 07:21:20;;;;;;;3.47;1.60;;;;;;;36.82;42.24;99286.81;5022710;28;20029;-56
2023/08/11 07:23:46;;;;;;;5.10;1.42;;;;;;;36.94;42.73;99285.03;5022906;28;20029;-56
2023/08/11 07:26:11;;;;;;;7.30;1.90;;;;;;;35.98;42.99;99279.44;5035122;28;20025;-57
2023/08/11 07:28:36;;;;;;;5.28;1.42;;;;;;;37.93;40.92;99283.47;5036680;28;20029;-57
2023/08/11 07:31:02;;;;;;;3.97;1.85;;;;;;;38.68;39.83;99291.66;5027198;28;20029;-57
2023/08/11 07:33:27;;;;;;;4.07;1.38;;;;;;;38.55;39.84;99274.91;5019311;28;20029;-57
2023/08/11 07:35:53;;;;;;;7.60;1.58;;;;;;;40.02;37.92;99285.31;5022774;28;20025;-57
2023/08/11 07:38:20;;;;;;;4.40;1.17;;;;;;;39.55;37.32;99286.81;5024529;28;20495;-57
2023/08/11 07:40:49;;;;;;;5.80;1.58;;;;;;;39.27;36.52;99284.44;5037869;28;20031;-57
2023/08/11 07:43:14;;;;;;;2.85;1.35;;;;;;;39.42;36.42;99280.59;5023676;28;20461;-57
2023/08/11 07:45:40;;;;;;;4.55;1.58;;;;;;;38.27;37.59;99280.88;5018852;28;20026;-57
2023/08/11 07:48:06;;;;;;;3.70;1.48;;;;;;;38.69;37.74;99290.47;5018478;28;20056;-57
2023/08/11 07:50:35;;;;;;;3.72;1.33;;;;;;;37.62;37.90;99283.69;5023275;28;20029;-57
2023/08/11 07:53:00;;;;;;;4.57;1.60;;;;;;;38.50;37.72;99285.72;5029684;28;20111;-57
2023/08/11 07:55:26;;;;;;;3.53;1.33;;;;;;;38.72;36.80;99282.03;5028082;28;20362;-57
2023/08/11 07:57:51;;;;;;;4.90;1.20;;;;;;;39.75;36.07;99290.28;5032874;28;20029;-57
2023/08/11 08:00:19;;;;;;;1.67;1.40;;;;;;;37.19;37.84;99289.25;5024650;28;20469;-57
2023/08/11 08:02:44;;;;;;;2.22;1.50;;;;;;;38.07;37.55;99299.94;5031217;28;20040;-57
2023/08/11 08:05:11;;;;;;;2.28;1.50;;;;;;;39.89;35.77;99295.31;5047149;28;20083;-57
2023/08/11 08:07:36;;;;;;;4.03;1.55;;;;;;;40.16;35.26;99298.81;5028291;28;20013;-54
2023/08/11 08:10:08;;;;;;;2.88;1.77;;;;;;;39.91;34.58;99304.25;5024134;28;20020;-55
2023/08/11 08:12:37;;;;;;;2.47;1.40;;;;;;;40.10;34.87;99294.72;5028663;28;20021;-55
2023/08/11 08:15:07;;;;;;;3.60;1.70;;;;;;;39.40;35.67;99288.66;5027814;28;20033;-55
2023/08/11 08:17:33;;;;;;;5.97;1.77;;;;;;;40.66;34.27;99298.47;5033113;28;20029;-56
2023/08/11 08:19:59;;;;;;;2.38;1.48;;;;;;;39.42;35.61;99297.59;5027630;28;22523;-56
2023/08/11 08:22:24;;;;;;;3.75;1.50;;;;;;;38.92;36.06;99302.56;5026233;28;20035;-56
2023/08/11 08:24:50;;;;;;;2.55;1.88;;;;;;;37.77;37.46;99291.25;5018348;28;20032;-56
2023/08/11 08:27:17;;;;;;;4.43;1.95;;;;;;;38.38;37.70;99303.66;5018796;28;20013;-56
2023/08/11 08:29:42;;;;;;;3.27;1.80;;;;;;;39.10;36.16;99304.84;5025340;28;20428;-56
2023/08/11 08:32:08;;;;;;;2.67;1.65;;;;;;;39.11;36.72;99298.78;5018551;28;20029;-56
2023/08/11 08:34:33;;;;;;;3.22;1.98;;;;;;;40.00;35.57;99298.25;5026008;28;20028;-57
2023/08/11 08:36:59;;;;;;;3.13;1.70;;;;;;;40.05;34.27;99303.56;5019467;28;20124;-56
2023/08/11 08:39:24;;;;;;;2.28;1.67;;;;;;;40.36;34.14;99292.97;5019649;28;20026;-55
2023/08/11 08:41:51;;;;;;;4.40;2.05;;;;;;;39.03;34.67;99297.06;5026004;28;20056;-55
2023/08/11 08:44:19;;;;;;;3.53;1.80;;;;;;;40.86;33.74;99297.00;5037772;28;20419;-55
2023/08/11 08:46:46;;;;;;;3.17;1.50;;;;;;;41.43;32.98;99292.84;5037953;28;20020;-57
2023/08/11 08:49:31;;;;;;;4.25;1.55;;;;;;;41.72;31.69;99293.78;5031437;28;20115;-55
2023/08/11 08:52:00;;;;;;;1.83;1.38;;;;;;;40.11;33.38;99285.00;5023738;28;20025;-55
2023/08/11 08:54:27;;;;;;;2.13;1.40;;;;;;;40.73;32.73;99281.50;5034105;28;20434;-55
2023/08/11 08:56:54;;;;;;;4.00;1.63;;;;;;;40.24;33.45;99285.56;5025029;28;20029;-57
2023/08/11 08:59:20;;;;;;;2.30;1.40;;;;;;;40.18;34.27;99285.06;5017572;28;20029;-55
2023/08/11 09:01:47;;;;;;;2.17;1.52;;;;;;;40.92;34.16;99286.88;5036296;28;20024;-55
2023/08/11 09:04:13;;;;;;;2.70;1.30;;;;;;;41.34;33.18;99282.66;5037220;28;20103;-55
2023/08/11 09:06:40;;;;;;;2.42;1.40;;;;;;;41.86;32.18;99276.75;5022202;28;20029;-55
2023/08/11 09:09:08;;;;;;;4.05;1.95;;;;;;;41.31;33.28;99274.13;5016475;28;20021;-55
2023/08/11 09:11:33;;;;;;;2.47;1.80;;;;;;;41.32;31.96;99272.91;5017669;28;20362;-55
2023/08/11 09:14:08;;;;;;;2.03;1.27;;;;;;;42.29;32.05;99276.00;5038967;28;20040;-55
2023/08/11 09:16:36;;;;;;;1.45;1.25;;;;;;;43.06;31.01;99274.28;5028090;28;20057;-55
2023/08/11 09:19:03;;;;;;;3.75;1.60;;;;;;;42.60;32.20;99272.34;5036407;28;20021;-55
2023/08/11 09:21:30;;;;;;;;;;;;;;;41.91;32.62;99272.69;5027455;28;20145;-55
2023/08/11 09:23:57;;;;;;;5.03;1.50;;;;;;;43.79;31.36;99269.13;5023909;28;19958;-55
2023/08/11 09:26:24;;;;;;;4.20;1.35;;;;;;;44.60;30.38;99259.13;5031368;28;20025;-56
2023/08/11 09:28:50;;;;;;;2.47;1.15;;;;;;;44.84;29.88;99260.13;5019775;28;20071;-56
2023/08/11 09:31:19;;;;;;;2.20;1.33;;;;;;;43.78;30.52;99265.44;5032255;28;20032;-56
2023/08/11 09:33:45;;;;;;;2.90;1.30;;;;;;;45.08;30.37;99256.59;5036518;28;20024;-56
2023/08/11 09:36:11;;;;;;;2.25;1.50;;;;;;;45.03;30.65;99250.09;5029574;28;20021;-55
2023/08/11 09:38:36;;;;;;;1.70;1.23;;;;;;;44.65;30.38;99246.44;5016158;28;20036;-55
2023/08/11 09:41:03;;;;;;;2.20;1.52;;;;;;;44.42;30.33;99244.22;5016676;28;20037;-55
2023/08/11 09:43:31;;;;;;;1.30;1.20;;;;;;;44.89;30.15;99246.63;5021818;28;20491;-56
2023/08/11 09:45:59;;;;;;;1.45;1.30;;;;;;;43.75;30.92;99249.97;5030317;28;20132;-56
2023/08/11 09:48:26;;;;;;;2.25;1.20;;;;;;;43.63;30.17;99252.53;5030269;28;20029;-55
2023/08/11 09:50:51;;;;;;;2.95;1.23;;;;;;;42.33;31.69;99249.19;5026907;28;20028;-56
2023/08/11 09:53:18;;;;;;;1.42;1.17;;;;;;;43.82;30.00;99242.63;5030049;28;20033;-55
2023/08/11 09:55:45;;;;;;;1.73;1.48;;;;;;;44.17;30.45;99245.22;5024565;28;20028;-55
2023/08/11 09:58:13;;;;;;;4.63;1.60;;;;;;;44.13;29.61;99253.00;5020914;28;20123;-55
2023/08/11 10:00:40;;;;;;;2.30;1.73;;;;;;;43.71;29.55;99242.72;5031056;28;20033;-55
2023/08/11 10:03:09;;;;;;;2.85;1.48;;;;;;;43.37;29.83;99243.28;5026904;28;20019;-55
2023/08/11 10:05:42;;;;;;;2.28;1.30;;;;;;;42.79;29.95;99248.38;5033485;28;20025;-55
2023/08/11 10:08:21;;;;;;;2.45;1.25;;;;;;;41.11;31.26;99248.91;5024802;28;20044;-54
2023/08/11 10:10:46;;;;;;;2.00;1.50;;;;;;;42.14;30.90;99247.56;5024522;28;20025;-55
2023/08/11 10:13:17;;;;;;;2.63;1.35;;;;;;;42.69;30.52;99246.31;5027576;28;20465;-55
2023/08/11 10:15:44;;;;;;;3.10;1.40;;;;;;;45.10;29.23;99242.69;5031989;28;20572;-55
2023/08/11 10:18:10;;;;;;;4.73;1.40;;;;;;;45.55;28.71;99251.13;5031600;28;20067;-55
2023/08/11 10:20:36;;;;;;;1.67;1.40;;;;;;;45.18;28.52;99249.97;5024534;28;20052;-55
2023/08/11 10:23:02;;;;;;;2.17;1.65;;;;;;;44.31;28.70;99254.91;5032994;28;20461;-55
2023/08/11 10:25:28;;;;;;;3.28;1.83;;;;;;;45.32;28.92;99243.25;5018921;28;20025;-55
2023/08/11 10:27:54;;;;;;;3.20;1.70;;;;;;;44.58;28.53;99247.31;5021031;28;20530;-55
2023/08/11 10:30:21;;;;;;;2.27;1.57;;;;;;;47.19;27.89;99241.75;5030129;28;20037;-55
2023/08/11 10:32:50;;;;;;;2.38;1.80;;;;;;;44.25;28.28;99245.97;5027473;28;20035;-55
2023/08/11 10:35:24;;;;;;;2.00;1.80;;;;;;;44.58;28.32;99241.59;5035647;28;20033;-55
2023/08/11 10:37:58;;;;;;;2.80;1.85;;;;;;;43.47;28.71;99250.13;5024547;28;20082;-55
2023/08/11 10:40:23;;;;;;;3.92;1.38;;;;;;;44.50;28.77;99247.81;5019096;28;20024;-55
2023/08/11 10:42:50;;;;;;;2.60;1.75;;;;;;;42.55;30.64;99250.03;5024623;28;20033;-56
2023/08/11 10:45:19;;;;;;;4.25;1.63;;;;;;;43.70;30.12;99250.44;5029717;28;20025;-56
2023/08/11 10:47:52;;;;;;;3.53;1.70;;;;;;;43.42;29.34;99248.53;5018890;28;20029;-56
2023/08/11 10:50:19;;;;;;;2.03;1.40;;;;;;;45.39;29.56;99240.31;5016972;28;20033;-57
2023/08/11 10:52:46;;;;;;;2.43;1.63;;;;;;;44.88;28.77;99239.28;5028748;28;20110;-57
2023/08/11 10:55:14;;;;;;;2.13;1.55;;;;;;;45.05;29.55;99247.63;5031394;28;20025;-57
2023/08/11 10:57:39;;;;;;;;;;;;;;;46.53;28.18;99240.56;5042590;22;20056;-67
2023/08/11 11:00:06;;;;;;;4.00;1.42;;;;;;;46.90;27.53;99239.47;5056638;28;19921;-68
2023/08/11 11:02:33;;;;;;;2.10;1.58;;;;;;;47.27;27.10;99245.28;5046659;28;20101;-68
2023/08/11 11:05:00;;;;;;;3.95;1.30;;;;;;;48.05;27.13;99246.34;5054567;28;20037;-60
2023/08/11 11:07:25;;;;;;;2.40;1.90;;;;;;;46.56;27.13;99240.53;5055831;28;20131;-60
2023/08/11 11:09:51;;;;;;;4.85;1.90;;;;;;;45.21;28.78;99243.38;5037874;28;20460;-62
2023/08/11 11:12:18;;;;;;;2.40;1.50;;;;;;;46.23;28.09;99241.50;5040555;28;20036;-60
2023/08/11 11:14:44;;;;;;;2.47;1.50;;;;;;;46.73;27.91;99238.56;5062578;28;20291;-61
2023/08/11 11:17:10;;;;;;;2.10;1.05;;;;;;;47.13;27.89;99235.75;5051265;28;20022;-61
2023/08/11 11:19:35;;;;;;;2.65;1.50;;;;;;;46.97;27.21;99238.50;5047227;28;20480;-61
2023/08/11 11:22:02;;;;;;;1.55;1.42;;;;;;;47.96;27.38;99233.91;5042282;28;20025;-62
2023/08/11 11:24:28;;;;;;;2.03;1.50;;;;;;;46.07;27.63;99236.47;5043982;28;20036;-62
2023/08/11 11:26:53;;;;;;;5.03;1.58;;;;;;;47.95;26.84;99230.25;5059709;28;20087;-61